createdAt,value
2022-12-19T00:00:15.149Z,3.97
2022-12-19T00:02:42.844Z,4.28
2022-12-19T00:05:11.106Z,4.78
2022-12-19T00:07:38.616Z,4.75
2022-12-19T00:10:06.539Z,3.30
2022-12-19T00:12:34.018Z,4.50
2022-12-19T00:15:02.792Z,4.95
2022-12-19T00:17:30.344Z,5.35
2022-12-19T00:19:57.883Z,6.40
2022-12-19T00:22:25.474Z,6.40
2022-12-19T00:24:53.001Z,5.07
2022-12-19T00:27:20.421Z,6.20
2022-12-19T00:29:47.943Z,5.32
2022-12-19T00:32:16.746Z,4.88
2022-12-19T00:34:44.277Z,5.30
2022-12-19T00:37:12.217Z,4.40
2022-12-19T00:39:39.665Z,6.50
2022-12-19T00:42:07.131Z,5.15
2022-12-19T00:44:34.781Z,5.50
2022-12-19T00:47:02.190Z,5.45
2022-12-19T00:49:30.955Z,6.50
2022-12-19T00:51:59.966Z,3.53
2022-12-19T00:54:27.617Z,4.55
2022-12-19T00:56:55.400Z,4.18
2022-12-19T00:59:26.771Z,4.40
2022-12-19T01:01:54.586Z,6.63
2022-12-19T01:04:30.364Z,6.53
2022-12-19T01:07:02.729Z,7.30
2022-12-19T01:09:30.899Z,6.10
2022-12-19T01:12:16.066Z,5.40
2022-12-19T01:14:43.577Z,5.25
2022-12-19T01:17:11.075Z,6.43
2022-12-19T01:19:43.587Z,6.75
2022-12-19T01:22:13.181Z,5.72
2022-12-19T01:24:41.270Z,8.38
2022-12-19T01:27:08.763Z,5.38
2022-12-19T01:29:45.541Z,5.32
2022-12-19T01:32:20.173Z,9.82
2022-12-19T01:34:47.578Z,5.88
2022-12-19T01:37:16.407Z,6.38
2022-12-19T01:39:44.957Z,3.97
2022-12-19T01:42:15.053Z,8.43
2022-12-19T01:45:03.936Z,7.38
2022-12-19T01:47:32.424Z,7.05
2022-12-19T01:50:00.453Z,7.03
2022-12-19T01:52:29.238Z,7.43
2022-12-19T01:54:56.747Z,3.90
2022-12-19T01:57:26.276Z,7.88
2022-12-19T01:59:55.325Z,5.63
2022-12-19T02:02:24.507Z,8.83
2022-12-19T02:04:52.051Z,7.18
2022-12-19T02:07:20.547Z,8.25
2022-12-19T02:09:57.025Z,7.78
2022-12-19T02:12:26.017Z,6.95
2022-12-19T02:14:54.030Z,7.38
2022-12-19T02:17:27.392Z,7.18
2022-12-19T02:20:23.987Z,8.38
2022-12-19T02:22:59.677Z,7.93
2022-12-19T02:25:36.300Z,10.48
2022-12-19T02:28:19.085Z,8.43
2022-12-19T02:30:54.607Z,8.63
2022-12-19T02:33:25.964Z,10.13
2022-12-19T02:35:54.472Z,8.77
2022-12-19T02:38:27.494Z,7.72
2022-12-19T02:40:58.869Z,8.88
2022-12-19T02:43:29.046Z,8.18
2022-12-19T02:45:58.489Z,9.10
2022-12-19T02:48:26.617Z,9.55
2022-12-19T02:50:54.049Z,8.70
2022-12-19T02:53:23.443Z,9.77
2022-12-19T02:56:00.775Z,11.02
2022-12-19T02:58:35.934Z,9.77
2022-12-19T03:01:10.341Z,7.32
2022-12-19T03:03:42.385Z,7.72
2022-12-19T03:06:14.117Z,10.15
2022-12-19T03:08:45.584Z,7.93
2022-12-19T03:11:14.768Z,6.53
2022-12-19T03:13:43.416Z,9.88
2022-12-19T03:16:12.607Z,9.77
2022-12-19T03:18:40.561Z,9.77
2022-12-19T03:21:12.143Z,10.20
2022-12-19T03:23:40.271Z,8.80
2022-12-19T03:26:08.558Z,12.40
2022-12-19T03:28:39.717Z,8.38
2022-12-19T03:31:07.583Z,9.43
2022-12-19T03:33:38.121Z,10.52
2022-12-19T03:36:07.641Z,11.98
2022-12-19T03:38:36.708Z,7.97
2022-12-19T03:41:04.693Z,8.90
2022-12-19T03:43:32.461Z,9.57
2022-12-19T03:46:03.542Z,11.10
2022-12-19T03:48:34.435Z,9.73
2022-12-19T03:51:08.475Z,10.40
2022-12-19T03:53:44.932Z,11.27
2022-12-19T03:56:17.488Z,9.88
2022-12-19T03:58:48.669Z,11.00
2022-12-19T04:01:16.488Z,12.85
2022-12-19T04:03:44.251Z,10.70
2022-12-19T04:06:14.346Z,9.43
2022-12-19T04:08:42.585Z,9.40
2022-12-19T04:11:14.456Z,9.50
2022-12-19T04:13:43.828Z,9.70
2022-12-19T04:16:13.915Z,9.82
2022-12-19T04:18:42.483Z,11.18
2022-12-19T04:21:15.989Z,10.90
2022-12-19T04:23:47.343Z,9.02
2022-12-19T04:26:17.298Z,8.32
2022-12-19T04:31:13.387Z,11.20
2022-12-19T04:33:40.827Z,9.60
2022-12-19T04:36:08.485Z,10.50
2022-12-19T04:38:35.899Z,10.38
2022-12-19T04:41:04.761Z,9.10
2022-12-19T04:43:32.161Z,10.73
2022-12-19T04:45:59.521Z,13.43
2022-12-19T04:48:26.917Z,10.25
2022-12-19T04:50:54.489Z,11.00
2022-12-19T04:53:22.121Z,10.10
2022-12-19T04:55:49.770Z,9.93
2022-12-19T04:58:21.812Z,10.35
2022-12-19T05:00:49.609Z,10.60
2022-12-19T05:03:16.987Z,12.00
2022-12-19T05:05:44.465Z,10.45
2022-12-19T05:08:11.903Z,12.90
2022-12-19T05:10:39.508Z,7.30
2022-12-19T05:13:07.587Z,8.15
2022-12-19T05:15:36.402Z,13.07
2022-12-19T05:18:04.137Z,11.25
2022-12-19T05:20:31.545Z,9.63
2022-12-19T05:23:01.892Z,10.77
2022-12-19T05:25:31.788Z,13.85
2022-12-19T05:27:59.179Z,9.32
2022-12-19T05:30:27.122Z,9.82
2022-12-19T05:32:55.989Z,11.50
2022-12-19T05:35:23.381Z,11.57
2022-12-19T05:37:50.780Z,12.27
2022-12-19T05:40:18.296Z,13.68
2022-12-19T05:42:45.722Z,13.20
2022-12-19T05:45:13.239Z,14.93
2022-12-19T05:47:40.675Z,10.95
2022-12-19T05:50:10.249Z,11.15
2022-12-19T05:52:40.174Z,6.45
2022-12-19T05:55:08.663Z,12.25
2022-12-19T05:57:36.127Z,12.68
2022-12-19T06:00:04.571Z,12.27
2022-12-19T06:02:33.427Z,12.60
2022-12-19T06:05:00.971Z,14.50
2022-12-19T06:07:29.875Z,15.50
2022-12-19T06:09:57.362Z,10.68
2022-12-19T06:12:24.795Z,13.05
2022-12-19T06:14:52.285Z,12.35
2022-12-19T06:17:19.772Z,7.60
2022-12-19T06:19:47.287Z,13.77
2022-12-19T06:22:14.697Z,14.38
2022-12-19T06:24:43.465Z,8.20
2022-12-19T06:27:10.909Z,11.98
2022-12-19T06:29:38.316Z,12.00
2022-12-19T06:32:05.870Z,12.32
2022-12-19T06:35:02.672Z,11.57
2022-12-19T06:37:20.702Z,14.25
2022-12-19T06:39:50.882Z,14.48
2022-12-19T06:42:23.338Z,14.30
2022-12-19T06:44:50.926Z,12.98
2022-12-19T06:47:18.461Z,10.43
2022-12-19T06:49:45.853Z,12.80
2022-12-19T06:52:13.456Z,14.57
2022-12-19T06:54:41.223Z,14.07
2022-12-19T06:57:10.445Z,13.32
2022-12-19T06:59:37.888Z,16.10
2022-12-19T07:02:10.797Z,10.90
2022-12-19T07:04:39.625Z,11.02
2022-12-19T07:07:07.065Z,13.60
2022-12-19T07:09:34.989Z,17.40
2022-12-19T07:12:02.511Z,13.70
2022-12-19T07:14:31.266Z,13.90
2022-12-19T07:17:00.733Z,14.80
2022-12-19T07:19:28.465Z,14.60
2022-12-19T07:21:56.165Z,12.40
2022-12-19T07:24:23.771Z,13.43
2022-12-19T07:26:51.728Z,11.70
2022-12-19T07:29:19.326Z,13.10
2022-12-19T07:31:48.133Z,16.55
2022-12-19T07:34:15.556Z,12.05
2022-12-19T07:36:43.052Z,15.57
2022-12-19T07:39:10.675Z,18.02
2022-12-19T07:41:38.503Z,13.48
2022-12-19T07:44:06.293Z,15.88
2022-12-19T07:46:33.929Z,14.68
2022-12-19T07:49:03.161Z,14.10
2022-12-19T07:51:30.651Z,15.02
2022-12-19T07:53:58.455Z,15.27
2022-12-19T07:56:27.410Z,12.10
2022-12-19T07:58:55.126Z,14.18
2022-12-19T08:01:22.712Z,11.77
2022-12-19T08:03:51.110Z,12.45
2022-12-19T08:06:20.544Z,14.02
2022-12-19T08:08:48.490Z,14.45
2022-12-19T08:11:17.139Z,17.58
2022-12-19T08:13:46.990Z,12.77
2022-12-19T08:16:15.470Z,10.38
2022-12-19T08:18:44.182Z,15.63
2022-12-19T08:21:11.904Z,10.25
2022-12-19T08:23:40.864Z,14.05
2022-12-19T08:26:09.846Z,11.40
2022-12-19T08:28:37.950Z,12.93
2022-12-19T08:31:06.782Z,11.40
2022-12-19T08:33:34.212Z,13.95
2022-12-19T08:36:04.491Z,8.30
2022-12-19T08:38:31.974Z,12.95
2022-12-19T08:41:01.292Z,14.60
2022-12-19T08:43:30.442Z,15.80
2022-12-19T08:45:57.977Z,18.65
2022-12-19T08:48:25.684Z,12.80
2022-12-19T08:50:53.473Z,14.10
2022-12-19T08:53:26.117Z,17.20
2022-12-19T08:55:55.373Z,14.60
2022-12-19T08:58:24.498Z,14.43
2022-12-19T09:00:57.649Z,14.35
2022-12-19T09:03:36.766Z,14.63
2022-12-19T09:06:18.696Z,12.05
2022-12-19T09:08:46.943Z,14.40
2022-12-19T09:11:15.713Z,11.30
2022-12-19T09:13:44.943Z,10.00
2022-12-19T09:16:13.611Z,10.15
2022-12-19T09:18:46.611Z,12.02
2022-12-19T09:21:16.254Z,10.60
2022-12-19T09:23:43.814Z,9.00
2022-12-19T09:26:14.056Z,9.82
2022-12-19T09:28:42.410Z,11.30
2022-12-19T09:31:12.652Z,8.23
2022-12-19T09:33:43.686Z,13.23
2022-12-19T09:36:13.349Z,11.50
2022-12-19T09:38:40.823Z,16.45
2022-12-19T09:41:18.140Z,8.95
2022-12-19T09:43:51.002Z,8.75
2022-12-19T09:46:20.943Z,9.32
2022-12-19T09:48:54.507Z,6.75
2022-12-19T09:51:28.327Z,7.95
2022-12-19T09:54:00.634Z,7.25
2022-12-19T09:56:30.446Z,9.82
2022-12-19T09:59:03.391Z,9.45
2022-12-19T10:01:36.197Z,7.55
2022-12-19T10:04:06.332Z,8.73
2022-12-19T10:07:14.555Z,6.40
2022-12-19T10:10:49.143Z,6.88
2022-12-19T10:12:45.062Z,4.80
2022-12-19T10:15:11.608Z,7.75
2022-12-19T10:17:50.603Z,7.03
2022-12-19T10:20:20.513Z,7.17
2022-12-19T10:22:57.302Z,5.53
2022-12-19T10:25:29.949Z,5.95
2022-12-19T10:28:00.777Z,5.95
2022-12-19T10:30:31.992Z,5.88
2022-12-19T10:33:04.311Z,6.65
2022-12-19T10:35:33.530Z,7.20
2022-12-19T10:38:08.830Z,6.70
2022-12-19T10:40:39.210Z,5.63
2022-12-19T10:43:17.072Z,8.45
2022-12-19T10:45:49.244Z,6.40
2022-12-19T10:50:45.269Z,6.38
2022-12-19T10:53:13.608Z,7.07
2022-12-19T10:55:45.517Z,8.10
2022-12-19T10:58:20.300Z,9.82
2022-12-19T11:00:57.461Z,9.45
2022-12-19T11:03:25.110Z,9.25
2022-12-19T11:05:58.065Z,8.65
2022-12-19T11:08:27.253Z,9.70
2022-12-19T11:12:38.554Z,8.80
2022-12-19T11:19:43.502Z,9.93
2022-12-19T11:20:00.930Z,11.77
2022-12-19T11:28:19.158Z,9.50
2022-12-19T11:29:32.717Z,8.43
2022-12-19T11:30:45.502Z,8.75
2022-12-19T11:30:47.443Z,10.27
2022-12-19T11:33:29.511Z,12.13
2022-12-19T11:36:00.808Z,9.93
2022-12-19T11:38:43.016Z,9.00
2022-12-19T11:41:17.679Z,8.20
2022-12-19T11:43:52.221Z,7.68
2022-12-19T11:46:26.113Z,10.93
2022-12-19T11:48:54.915Z,10.15
2022-12-19T11:51:25.275Z,10.60
2022-12-19T11:53:57.886Z,12.35
2022-12-19T11:56:25.704Z,13.73
2022-12-19T11:58:54.970Z,9.10
2022-12-19T12:01:30.516Z,11.15
2022-12-19T12:04:06.779Z,8.95
2022-12-19T12:06:35.348Z,13.18
2022-12-19T12:11:46.659Z,11.88
2022-12-19T12:21:12.592Z,12.63
2022-12-19T12:24:42.978Z,11.75
2022-12-19T12:31:18.863Z,12.27
2022-12-19T12:31:28.277Z,12.85
2022-12-19T12:31:38.590Z,11.88
2022-12-19T12:31:42.235Z,9.80
2022-12-19T12:35:15.397Z,13.60
2022-12-19T12:36:53.127Z,11.02
2022-12-19T12:40:53.372Z,10.30
2022-12-19T12:43:28.037Z,14.60
2022-12-19T12:45:57.781Z,13.27
2022-12-19T12:48:28.289Z,13.40
2022-12-19T12:50:57.544Z,14.32
2022-12-19T12:53:27.019Z,10.73
2022-12-19T12:55:56.629Z,13.10
2022-12-19T12:58:42.778Z,13.40
2022-12-19T13:01:12.991Z,14.10
2022-12-19T13:03:41.893Z,17.33
2022-12-19T13:06:22.451Z,13.88
2022-12-19T13:08:50.335Z,10.70
2022-12-19T13:11:54.561Z,13.32
2022-12-19T13:14:40.783Z,16.55
2022-12-19T13:17:13.150Z,9.32
2022-12-19T13:19:52.751Z,11.98
2022-12-19T13:22:21.645Z,17.10
2022-12-19T13:24:51.079Z,13.55
2022-12-19T13:27:35.483Z,12.65
2022-12-19T13:30:06.134Z,11.15
2022-12-19T13:32:55.034Z,14.63
2022-12-19T13:37:32.451Z,9.07
2022-12-19T13:39:57.817Z,10.98
2022-12-19T13:43:59.111Z,9.63
2022-12-19T13:46:30.017Z,15.18
2022-12-19T13:49:07.214Z,11.63
2022-12-19T13:51:46.982Z,11.50
2022-12-19T13:54:24.024Z,9.35
2022-12-19T13:56:51.902Z,9.52
2022-12-19T13:59:20.317Z,10.30
2022-12-19T14:01:47.993Z,9.80
2022-12-19T14:04:26.808Z,14.07
2022-12-19T14:06:57.235Z,11.23
2022-12-19T14:11:27.725Z,11.43
2022-12-19T14:13:39.988Z,11.10
2022-12-19T14:15:31.434Z,11.43
2022-12-19T14:18:41.733Z,10.80
2022-12-19T14:22:06.315Z,10.50
2022-12-19T14:23:43.592Z,13.68
2022-12-19T14:28:28.135Z,12.65
2022-12-19T14:29:03.441Z,9.65
2022-12-19T14:31:33.139Z,11.15
2022-12-19T14:34:35.737Z,11.48
2022-12-19T14:36:53.435Z,13.13
2022-12-19T14:39:29.417Z,10.82
2022-12-19T14:42:19.992Z,12.93
2022-12-19T14:50:38.224Z,10.65
2022-12-19T14:52:35.908Z,11.55
2022-12-19T14:54:31.517Z,10.43
2022-12-19T14:55:08.291Z,13.88
2022-12-19T14:56:59.777Z,10.32
2022-12-19T14:59:30.078Z,11.80
2022-12-19T15:02:00.910Z,10.45
2022-12-19T15:04:51.738Z,10.05
2022-12-19T15:07:20.392Z,9.02
2022-12-19T15:11:04.925Z,12.30
2022-12-19T15:14:57.777Z,9.82
2022-12-19T15:15:55.935Z,10.63
2022-12-19T15:18:25.098Z,12.73
2022-12-19T15:20:53.073Z,13.00
2022-12-19T15:23:22.691Z,9.98
2022-12-19T15:28:38.090Z,12.00
2022-12-19T15:31:07.807Z,9.82
2022-12-19T15:33:35.676Z,7.57
2022-12-19T15:36:03.208Z,13.15
2022-12-19T15:38:30.614Z,13.10
2022-12-19T15:40:58.084Z,13.30
2022-12-19T15:44:01.797Z,12.60
2022-12-19T15:46:16.531Z,11.88
2022-12-19T15:48:46.430Z,9.32
2022-12-19T15:51:14.822Z,14.57
2022-12-19T15:53:42.561Z,13.68
2022-12-19T15:56:25.364Z,12.13
2022-12-19T15:58:53.426Z,10.60
2022-12-19T16:01:22.583Z,9.85
2022-12-19T16:03:50.928Z,9.43
2022-12-19T16:06:18.597Z,9.90
2022-12-19T16:08:45.999Z,9.90
2022-12-19T16:11:17.516Z,13.93
2022-12-19T16:13:46.251Z,12.68
2022-12-19T16:16:15.968Z,11.15
2022-12-19T16:21:18.915Z,9.52
2022-12-19T16:23:46.478Z,9.80
2022-12-19T16:26:20.932Z,9.82
2022-12-19T16:28:48.352Z,10.02
2022-12-19T16:31:16.711Z,12.85
2022-12-19T16:33:44.149Z,12.30
2022-12-19T16:36:11.573Z,12.10
2022-12-19T16:38:40.349Z,12.68
2022-12-19T16:41:11.512Z,12.77
2022-12-19T16:43:39.691Z,8.95
2022-12-19T16:46:08.563Z,9.60
2022-12-19T16:48:36.474Z,13.70
2022-12-19T16:51:03.930Z,13.40
2022-12-19T16:53:31.391Z,13.55
2022-12-19T16:56:00.579Z,12.52
2022-12-19T16:58:29.279Z,13.55
2022-12-19T17:00:56.932Z,11.65
2022-12-19T17:03:28.928Z,13.60
2022-12-19T17:05:56.958Z,9.80
2022-12-19T17:08:24.737Z,12.57
2022-12-19T17:10:53.320Z,10.30
2022-12-19T17:13:22.603Z,11.55
2022-12-19T17:15:56.433Z,9.65
2022-12-19T17:18:26.437Z,11.30
2022-12-19T17:20:53.898Z,10.93
2022-12-19T17:23:22.680Z,14.23
2022-12-19T17:25:55.519Z,14.00
2022-12-19T17:28:24.335Z,9.57
2022-12-19T17:30:53.237Z,9.68
2022-12-19T17:33:24.630Z,10.77
2022-12-19T17:35:52.040Z,9.75
2022-12-19T17:38:19.817Z,9.43
2022-12-19T17:40:47.321Z,13.02
2022-12-19T17:43:14.828Z,11.32
2022-12-19T17:45:43.648Z,11.55
2022-12-19T17:48:16.625Z,11.13
2022-12-19T17:50:44.216Z,12.10
2022-12-19T17:53:13.649Z,9.30
2022-12-19T17:55:41.219Z,13.48
2022-12-19T17:58:09.261Z,11.10
2022-12-19T18:00:38.064Z,9.57
2022-12-19T18:03:17.070Z,19.52
2022-12-19T18:05:44.687Z,10.02
2022-12-19T18:08:22.229Z,10.63
2022-12-19T18:10:49.706Z,14.40
2022-12-19T18:13:17.175Z,9.50
2022-12-19T18:15:44.715Z,10.57
2022-12-19T18:18:15.189Z,12.23
2022-12-19T18:20:43.249Z,14.02
2022-12-19T18:23:14.713Z,11.52
2022-12-19T18:25:42.135Z,12.95
2022-12-19T18:28:09.546Z,14.35
2022-12-19T18:30:37.680Z,13.90
2022-12-19T18:33:05.696Z,13.50
2022-12-19T18:35:35.708Z,15.75
2022-12-19T18:38:05.769Z,12.43
2022-12-19T18:40:33.264Z,14.82
2022-12-19T18:43:01.137Z,14.00
2022-12-19T18:45:31.473Z,13.88
2022-12-19T18:48:00.440Z,13.02
2022-12-19T18:50:29.288Z,15.77
2022-12-19T18:52:58.256Z,11.52
2022-12-19T18:55:26.595Z,13.30
2022-12-19T18:57:54.053Z,12.70
2022-12-19T19:00:23.413Z,13.57
2022-12-19T19:02:52.749Z,18.02
2022-12-19T19:05:21.455Z,13.70
2022-12-19T19:07:49.407Z,11.85
2022-12-19T19:10:22.479Z,10.38
2022-12-19T19:12:50.623Z,13.45
2022-12-19T19:15:20.009Z,12.50
2022-12-19T19:17:49.083Z,8.68
2022-12-19T19:20:18.690Z,11.13
2022-12-19T19:22:46.274Z,13.73
2022-12-19T19:25:14.299Z,12.07
2022-12-19T19:27:43.143Z,12.75
2022-12-19T19:30:11.566Z,13.38
2022-12-19T19:32:40.508Z,13.90
2022-12-19T19:35:11.435Z,12.48
2022-12-19T19:37:39.585Z,12.73
2022-12-19T19:40:07.863Z,11.70
2022-12-19T19:42:41.246Z,17.63
2022-12-19T19:45:10.860Z,11.93
2022-12-19T19:47:38.608Z,12.35
2022-12-19T19:50:09.908Z,12.02
2022-12-19T19:52:38.342Z,13.98
2022-12-19T19:55:06.615Z,13.57
2022-12-19T19:57:34.176Z,11.32
2022-12-19T20:00:01.823Z,13.85
2022-12-19T20:02:30.758Z,12.80
2022-12-19T20:04:59.389Z,10.17
2022-12-19T20:07:26.933Z,12.77
2022-12-19T20:09:54.351Z,12.70
2022-12-19T20:12:21.981Z,11.82
2022-12-19T20:14:49.547Z,15.25
2022-12-19T20:17:17.077Z,12.18
2022-12-19T20:19:45.859Z,12.85
2022-12-19T20:22:15.713Z,13.02
2022-12-19T20:27:10.386Z,13.38
2022-12-19T20:29:38.201Z,14.02
2022-12-19T20:32:06.130Z,14.10
2022-12-19T20:34:33.646Z,13.48
2022-12-19T20:37:02.529Z,12.00
2022-12-19T20:39:30.396Z,11.27
2022-12-19T20:41:58.197Z,12.55
2022-12-19T20:44:28.481Z,13.57
2022-12-19T20:46:55.972Z,11.50
2022-12-19T20:49:24.138Z,17.63
2022-12-19T20:51:51.662Z,11.25
2022-12-19T20:54:20.831Z,15.25
2022-12-19T20:56:48.292Z,14.25
2022-12-19T20:59:15.742Z,13.85
2022-12-19T21:01:45.947Z,13.35
2022-12-19T21:04:18.230Z,16.50
2022-12-19T21:06:45.883Z,10.65
2022-12-19T21:09:13.348Z,13.20
2022-12-19T21:11:42.209Z,14.00
2022-12-19T21:14:11.443Z,12.85
2022-12-19T21:16:39.039Z,15.00
2022-12-19T21:19:07.084Z,12.25
2022-12-19T21:21:34.526Z,13.80
2022-12-19T21:24:02.658Z,7.93
2022-12-19T21:26:30.394Z,13.40
2022-12-19T21:28:59.441Z,11.93
2022-12-19T21:31:28.736Z,13.27
2022-12-19T21:33:56.565Z,12.70
2022-12-19T21:36:24.936Z,12.77
2022-12-19T21:38:53.239Z,12.35
2022-12-19T21:41:21.231Z,11.68
2022-12-19T21:43:49.076Z,14.45
2022-12-19T21:46:18.942Z,13.77
2022-12-19T21:48:47.819Z,11.30
2022-12-19T21:51:16.474Z,11.60
2022-12-19T21:53:44.031Z,10.23
2022-12-19T21:56:20.409Z,14.80
2022-12-19T21:58:47.855Z,12.02
2022-12-19T22:01:16.066Z,10.05
2022-12-19T22:03:44.990Z,12.75
2022-12-19T22:06:15.760Z,12.67
2022-12-19T22:08:43.185Z,10.15
2022-12-19T22:11:13.361Z,10.45
2022-12-19T22:13:40.819Z,11.80
2022-12-19T22:16:08.583Z,11.80
2022-12-19T22:18:36.129Z,11.13
2022-12-19T22:21:05.228Z,13.27
2022-12-19T22:23:32.691Z,13.02
2022-12-19T22:26:04.313Z,10.00
2022-12-19T22:28:32.341Z,12.18
2022-12-19T22:31:00.025Z,11.63
2022-12-19T22:33:27.570Z,13.30
2022-12-19T22:35:55.095Z,10.05
2022-12-19T22:38:23.896Z,10.95
2022-12-19T22:40:51.376Z,12.18
2022-12-19T22:43:18.762Z,10.15
2022-12-19T22:45:46.209Z,13.05
2022-12-19T22:48:13.724Z,13.18
2022-12-19T22:50:45.440Z,13.48
2022-12-19T22:53:13.175Z,13.18
2022-12-19T22:55:42.089Z,12.32
2022-12-19T22:58:09.703Z,12.50
2022-12-19T23:00:37.427Z,12.57
2022-12-19T23:03:04.976Z,11.07
2022-12-19T23:05:32.633Z,10.38
2022-12-19T23:08:00.696Z,12.40
2022-12-19T23:10:28.686Z,11.82
2022-12-19T23:12:57.456Z,10.77
2022-12-19T23:15:24.843Z,11.25
2022-12-19T23:17:52.347Z,11.13
2022-12-19T23:20:19.781Z,12.10
2022-12-19T23:22:47.210Z,10.73
2022-12-19T23:25:14.755Z,9.63
2022-12-19T23:27:42.347Z,11.65
2022-12-19T23:30:12.313Z,9.68
2022-12-19T23:32:42.824Z,12.98
2022-12-19T23:35:12.979Z,9.13
2022-12-19T23:37:40.691Z,11.38
2022-12-19T23:40:08.803Z,10.63
2022-12-19T23:42:36.218Z,10.63
2022-12-19T23:45:03.689Z,11.95
2022-12-19T23:47:32.528Z,12.32
2022-12-19T23:49:59.923Z,12.55
2022-12-19T23:52:27.336Z,11.88
2022-12-19T23:54:55.086Z,15.23
2022-12-19T23:57:22.537Z,13.48
2022-12-19T23:59:49.935Z,14.75
